Data for 11/14/2015

Time Sea-Level Adjusted Pressure Absolute Pressure Temperature Relative Humidity Dew Point   
(mb) (inHg) (mb) (inHg) (C) (F) (%) (C) (F)
00:05 1017 30.03 846 24.98 7.5 45.5 44 -4 24.7
00:10 1017 30.03 846 24.98 8.2 46.7 43 -3.8 25.2
00:15 1017 30.03 846 24.98 8.2 46.8 43 -3.6 25.5
00:20 1017 30.03 846 24.98 8.2 46.7 42 -4 24.8
00:25 1017 30.03 846 24.98 8.2 46.8 43 -3.7 25.4
00:30 1017 30.03 846 24.98 8.2 46.7 42 -3.9 25
00:35 1017 30.03 846 24.98 8 46.4 44 -3.5 25.7
00:40 1017 30.03 846 24.98 7.7 45.9 45 -3.5 25.7
00:45 1017 30.03 846 24.98 7.3 45.1 47 -3.4 25.9
00:50 1017 30.03 846 24.98 6.8 44.3 48 -3.3 26
00:55 1017 30.03 846 24.98 6.4 43.5 49 -3.5 25.6
01:00 1017 30.03 846 24.98 6.2 43.2 48 -3.9 25.1
01:05 1017 30.03 846 24.98 6.5 43.8 47 -3.9 25
01:10 1017 30.03 846 24.98 6.7 44 48 -3.7 25.4
01:15 1017 30.03 846 24.98 6.6 43.8 48 -3.7 25.4
01:20 1017 30.03 846 24.98 6.6 43.9 48 -3.6 25.5
01:25 1017 30.03 846 24.98 6.7 44 47 -3.8 25.2
01:30 1017 30.03 846 24.98 6.7 44.1 48 -3.4 25.8
01:35 1017 30.03 846 24.98 6.5 43.7 49 -3.5 25.6
01:40 1017 30.03 846 24.98 6.5 43.7 48 -3.7 25.4
01:45 1017 30.03 846 24.98 6.5 43.8 49 -3.5 25.7
01:50 1017 30.03 846 24.98 6.6 43.8 50 -3.1 26.4
01:55 1017 30.03 846 24.98 6.6 43.9 49 -3.2 26.2
02:00 1017 30.03 846 24.98 6.5 43.7 49 -3.4 25.9
02:05 1017 30.03 846 24.98 6.3 43.4 50 -3.4 25.8
02:10 1017 30.03 846 24.98 6.2 43.1 50 -3.4 25.9
02:15 1017 30.03 846 24.98 5.8 42.5 52 -3.4 25.9
02:20 1017 30.03 846 24.98 5.4 41.8 53 -3.4 25.9
02:25 1017 30.03 846 24.98 5 41 54 -3.5 25.7
02:30 1017 30.03 846 24.98 5.1 41.2 51 -4.1 24.7
02:35 1017 30.03 846 24.98 5.7 42.2 51 -3.7 25.3
02:40 1017 30.03 846 24.98 5.6 42.1 52 -3.5 25.8
02:45 1017 30.03 846 24.98 5.4 41.7 53 -3.4 25.9
02:50 1017 30.03 846 24.98 5.2 41.3 54 -3.5 25.8
02:55 1017 30.03 846 24.98 4.8 40.6 55 -3.4 25.9
03:00 1017 30.03 846 24.98 4.4 39.9 58 -3.1 26.4
03:05 1017 30.03 846 24.98 4.4 39.9 55 -3.7 25.3
03:10 1017 30.03 846 24.98 4.7 40.5 54 -3.7 25.3
03:15 1017 30.03 846 24.98 4.8 40.6 54 -3.8 25.2
03:20 1017 30.03 846 24.98 4.9 40.8 54 -3.7 25.3
03:25 1017 30.03 846 24.98 4.5 40.1 56 -3.4 25.9
03:30 1017 30.03 846 24.98 4.1 39.5 56 -3.9 25
03:35 1017 30.03 846 24.98 4.6 40.3 54 -3.8 25.1
03:40 1017 30.03 846 24.98 4.8 40.7 54 -3.7 25.3
03:45 1017 30.03 846 24.98 4.6 40.4 54 -3.8 25.2
03:50 1017 30.03 846 24.98 4.5 40.1 55 -3.8 25.2
03:55 1017 30.03 846 24.98 4.2 39.6 56 -3.8 25.2
04:00 1017 30.03 846 24.98 4.2 39.6 56 -3.8 25.2
04:05 1017 30.03 846 24.98 4.2 39.6 55 -4 24.9
04:10 1017 30.03 846 24.98 4.4 39.9 55 -3.9 25
04:15 1017 30.03 846 24.98 4.5 40.1 54 -3.9 24.9
04:20 1017 30.03 846 24.98 4.5 40.1 54 -3.9 25
04:25 1017 30.03 846 24.98 4.5 40 55 -3.7 25.3
04:30 1017 30.03 846 24.98 4.1 39.4 57 -3.7 25.4
04:35 1017 30.03 846 24.98 3.8 38.8 59 -3.6 25.6
04:40 1017 30.03 846 24.98 3.1 37.5 61 -3.7 25.3
04:45 1017 30.03 846 24.98 3.2 37.7 59 -4 24.8
04:50 1016 30 846 24.98 3.7 38.6 57 -4.1 24.6
04:55 1016 30 846 24.98 4.1 39.4 56 -3.9 25
05:00 1016 30 846 24.98 4.1 39.3 56 -3.8 25.1
05:05 1016 30 845 24.95 4 39.1 59 -3.3 26
05:10 1016 30 845 24.95 4.2 39.6 58 -3.2 26.2
05:15 1016 30 845 24.95 4.1 39.3 57 -3.6 25.5
05:20 1016 30 845 24.95 3.3 37.9 61 -3.5 25.7
05:25 1016 30 846 24.98 2.4 36.3 63 -3.9 25
05:30 1016 30 846 24.98 1.7 35.1 66 -4 24.8
05:35 1016 30 846 24.98 2.2 36 62 -4.2 24.4
05:40 1016 30 846 24.98 2.9 37.2 61 -4 24.9
05:45 1016 30 845 24.95 2.9 37.1 60 -4 24.7
05:50 1016 30 845 24.95 3.2 37.8 59 -4 24.8
05:55 1016 30 845 24.95 2.8 37 60 -4.3 24.2
06:00 1016 30 845 24.95 2.7 36.9 64 -3.5 25.7
06:05 1016 30 845 24.95 2.5 36.6 62 -4 24.8
06:10 1016 30 845 24.95 2.8 37 63 -3.7 25.4
06:15 1016 30 845 24.95 2.7 36.9 63 -3.5 25.6
06:20 1016 30 845 24.95 2.3 36.2 65 -3.5 25.7
06:25 1016 30 845 24.95 2.1 35.8 66 -3.5 25.7
06:30 1016 30 845 24.95 1.4 34.4 70 -3.6 25.5
06:35 1016 30 845 24.95 0.9 33.7 71 -3.8 25.2
06:40 1016 30 845 24.95 1.1 33.9 69 -4 24.8
06:45 1016 30 845 24.95 1.1 34 69 -4 24.9
06:50 1016 30 845 24.95 0.9 33.7 71 -3.8 25.1
06:55 1016 30 845 24.95 0.8 33.4 71 -4 24.8
07:00 1016 30 845 24.95 1.7 35.1 67 -3.8 25.2
07:05 1016 30 845 24.95 1.8 35.2 66 -3.9 25.1
07:10 1016 30 845 24.95 1.7 35 67 -3.8 25.2
07:15 1016 30 845 24.95 1.3 34.4 68 -4 24.8
07:20 1016 30 845 24.95 1.3 34.4 68 -4 24.7
07:25 1016 30 845 24.95 1.9 35.4 64 -4.2 24.5
07:30 1016 30 845 24.95 2.1 35.8 65 -3.8 25.1
07:35 1016 30 845 24.95 2.4 36.3 63 -3.8 25.1
07:40 1016 30 845 24.95 3 37.3 61 -3.7 25.3
07:45 1016 30 845 24.95 3 37.3 62 -3.5 25.6
07:50 1016 30 845 24.95 3 37.3 62 -3.6 25.5
07:55 1015 29.97 845 24.95 3.1 37.6 59 -4.1 24.7
08:00 1015 29.97 845 24.95 3.1 37.5 63 -3.4 26
08:05 1016 30 845 24.95 2.4 36.3 67 -3.2 26.3
08:10 1016 30 845 24.95 2.7 36.8 62 -3.9 25
08:15 1016 30 845 24.95 3.3 37.9 60 -3.7 25.3
08:20 1016 30 845 24.95 2.8 37 64 -3.4 25.9
08:25 1016 30 845 24.95 2.6 36.7 61 -4.1 24.5
08:30 1016 30 845 24.95 2.9 37.2 64 -3.3 26.1
08:35 1016 30 845 24.95 1.9 35.3 67 -3.6 25.5
08:40 1016 30 845 24.95 1.5 34.6 68 -3.9 25.1
08:45 1016 30 845 24.95 0.9 33.6 71 -3.7 25.3
08:50 1016 30 845 24.95 0.8 33.5 69 -4.2 24.4
08:55 1016 30 845 24.95 0.9 33.6 70 -4 24.7
09:00 1016 30 845 24.95 0.7 33.3 70 -4.1 24.5
09:05 1016 30 845 24.95 0.6 33.1 71 -4.1 24.7
09:10 1016 30 845 24.95 1.1 34 66 -4.5 24
09:15 1016 30 845 24.95 2.3 36.1 62 -4.3 24.3
09:20 1016 30 845 24.95 2.7 36.9 61 -4.1 24.7
09:25 1016 30 845 24.95 3 37.4 59 -4.3 24.3
09:30 1016 30 845 24.95 3.5 38.3 57 -4.1 24.6
09:35 1016 30 845 24.95 3.9 39 56 -4 24.7
09:40 1016 30 845 24.95 3.9 39 56 -4 24.8
09:45 1016 30 845 24.95 3.6 38.4 59 -3.8 25.2
09:50 1016 30 845 24.95 3.3 37.9 59 -4 24.8
09:55 1016 30 845 24.95 3.4 38.1 58 -4.1 24.5
10:00 1016 30 845 24.95 3.6 38.4 58 -3.8 25.1
10:05 1016 30 845 24.95 3.6 38.4 58 -4 24.8
10:10 1016 30 845 24.95 4 39.2 55 -4.2 24.5
10:15 1016 30 845 24.95 4.3 39.8 56 -3.7 25.3
10:20 1015 29.97 845 24.95 4.4 40 55 -3.8 25.1
10:25 1015 29.97 845 24.95 4.9 40.7 53 -3.9 25.1
10:30 1015 29.97 845 24.95 5.5 41.8 51 -3.9 25
10:35 1015 29.97 844 24.92 5.9 42.7 50 -3.6 25.6
10:40 1015 29.97 844 24.92 6.2 43.1 49 -3.7 25.4
10:45 1015 29.97 844 24.92 6.8 44.2 47 -3.6 25.5
10:50 1015 29.97 844 24.92 7.4 45.3 45 -3.8 25.2
10:55 1015 29.97 844 24.92 8 46.4 44 -3.4 26
11:00 1015 29.97 844 24.92 8.9 48 41 -3.7 25.3
11:05 1015 29.97 844 24.92 9.2 48.6 39 -4.1 24.7
11:10 1015 29.97 844 24.92 9.7 49.5 38 -3.8 25.1
11:15 1015 29.97 844 24.92 10.2 50.4 35 -4.5 23.9
11:20 1015 29.97 844 24.92 10.3 50.5 36 -4.2 24.4
11:25 1015 29.97 844 24.92 10.4 50.8 36 -4.1 24.6
11:30 1015 29.97 844 24.92 9.9 49.7 37 -4 24.8
11:35 1015 29.97 844 24.92 9.5 49.1 38 -4.2 24.5
11:40 1015 29.97 844 24.92 9.4 48.9 38 -4 24.7
11:45 1015 29.97 844 24.92 9.3 48.7 39 -3.9 24.9
11:50 1015 29.97 844 24.92 9.4 48.9 36 -5 23
11:55 1015 29.97 844 24.92 9.7 49.4 36 -4.8 23.4
12:00 1015 29.97 844 24.92 9.9 49.8 34 -5.2 22.7
12:05 1015 29.97 844 24.92 10.4 50.7 34 -4.9 23.1
12:10 1015 29.97 844 24.92 10.8 51.4 33 -4.9 23.2
12:15 1015 29.97 844 24.92 10.9 51.7 33 -4.8 23.3
12:20 1015 29.97 844 24.92 11.4 52.4 31 -5 23
12:25 1015 29.97 844 24.92 11.4 52.6 31 -5.1 22.8
12:30 1015 29.97 844 24.92 11.5 52.6 31 -5 23
12:35 1015 29.97 844 24.92 11.8 53.2 33 -3.8 25.1
12:40 1014 29.94 844 24.92 11.3 52.4 38 -2.5 27.6
12:45 1015 29.97 844 24.92 10.9 51.5 36 -3.7 25.4
12:50 1015 29.97 844 24.92 10.6 51 33 -4.9 23.1
12:55 1014 29.94 844 24.92 11.1 51.9 32 -4.8 23.3
13:00 1014 29.94 844 24.92 11.7 53.1 39 -1.9 28.7
13:05 1014 29.94 844 24.92 11.7 53 36 -2.8 27
13:10 1014 29.94 844 24.92 11.9 53.5 33 -3.8 25.1
13:15 1014 29.94 843 24.89 12.1 53.8 33 -3.4 25.9
13:20 1014 29.94 843 24.89 11.4 52.5 33 -4.3 24.2
13:25 1014 29.94 843 24.89 11.2 52.2 36 -3.3 26.1
13:30 1014 29.94 843 24.89 11.5 52.8 33 -4.2 24.5
13:35 1014 29.94 843 24.89 12.5 54.5 31 -4 24.9
13:40 1014 29.94 843 24.89 12.2 54 33 -3.6 25.6
13:45 1014 29.94 843 24.89 12.4 54.2 30 -4.6 23.8
13:50 1014 29.94 843 24.89 13 55.4 30 -4.2 24.4
13:55 1014 29.94 843 24.89 12.5 54.6 30 -4.4 24.2
14:00 1014 29.94 843 24.89 11.9 53.4 30 -5.3 22.5
14:05 1014 29.94 843 24.89 12 53.7 31 -4.4 24.1
14:10 1014 29.94 843 24.89 12.6 54.7 29 -4.8 23.4
14:15 1014 29.94 843 24.89 13.2 55.7 27 -5.4 22.3
14:20 1014 29.94 843 24.89 13.2 55.8 27 -5.4 22.2
14:25 1014 29.94 843 24.89 13.4 56.1 26 -5.5 22.1
14:30 1014 29.94 843 24.89 13.8 56.8 27 -4.9 23.1
14:35 1014 29.94 843 24.89 13.6 56.5 27 -5.1 22.9
14:40 1014 29.94 843 24.89 13.3 55.9 27 -5.2 22.6
14:45 1014 29.94 843 24.89 13.3 55.9 27 -5.1 22.8
14:50 1014 29.94 843 24.89 13.6 56.5 27 -4.9 23.3
14:55 1014 29.94 843 24.89 13.8 56.9 27 -4.5 23.8
15:00 1014 29.94 843 24.89 13.8 56.8 28 -4.4 24.1
15:05 1014 29.94 843 24.89 12.6 54.7 30 -4.6 23.7
15:10 1014 29.94 843 24.89 12.3 54.2 30 -4.8 23.4
15:15 1014 29.94 843 24.89 12.4 54.2 31 -4.3 24.3
15:20 1014 29.94 843 24.89 12.2 53.9 31 -4.4 24
15:25 1014 29.94 843 24.89 12 53.6 30 -4.9 23.2
15:30 1014 29.94 843 24.89 12.2 54 29 -5.2 22.7
15:35 1014 29.94 843 24.89 12.1 53.9 30 -4.9 23.2
15:40 1013 29.91 843 24.89 12.1 53.8 29 -5.2 22.7
15:45 1013 29.91 843 24.89 12.2 53.9 31 -4.6 23.7
15:50 1013 29.91 843 24.89 12.2 53.9 32 -3.9 25
15:55 1013 29.91 843 24.89 12.1 53.8 32 -4.2 24.5
16:00 1013 29.91 843 24.89 11.9 53.5 33 -3.9 24.9
16:05 1013 29.91 843 24.89 11.8 53.2 32 -4.1 24.5
16:10 1013 29.91 843 24.89 12.3 54.1 31 -4.3 24.3
16:15 1013 29.91 843 24.89 12.1 53.8 32 -4.1 24.6
16:20 1014 29.94 843 24.89 11.7 53.1 33 -4.1 24.6
16:25 1014 29.94 843 24.89 11.5 52.8 35 -3.3 26.1
16:30 1014 29.94 843 24.89 11.6 52.9 33 -4.2 24.4
16:35 1014 29.94 843 24.89 12 53.5 34 -3.3 26
16:40 1014 29.94 843 24.89 12.1 53.7 33 -3.8 25.2
16:45 1014 29.94 843 24.89 11.8 53.2 35 -3 26.6
16:50 1014 29.94 843 24.89 11.4 52.6 41 -1.5 29.4
16:55 1014 29.94 843 24.89 11.4 52.6 41 -1.3 29.7
17:00 1014 29.94 843 24.89 11.4 52.5 43 -0.8 30.6
17:05 1014 29.94 843 24.89 10.6 51.1 45 -0.9 30.4
17:10 1014 29.94 843 24.89 10 49.9 50 0.1 32.2
17:15 1014 29.94 843 24.89 9.7 49.5 48 -0.8 30.6
17:20 1014 29.94 843 24.89 9.6 49.4 43 -2.3 27.9
17:25 1014 29.94 843 24.89 9.8 49.7 45 -1.4 29.5
17:30 1014 29.94 843 24.89 9.9 49.7 41 -2.6 27.3
17:35 1014 29.94 843 24.89 9.9 49.8 44 -1.9 28.7
17:40 1014 29.94 843 24.89 9.8 49.6 42 -2.4 27.7
17:45 1014 29.94 843 24.89 10 49.9 44 -1.7 29
17:50 1014 29.94 843 24.89 9.7 49.4 44 -2 28.4
17:55 1014 29.94 843 24.89 9.5 49.1 46 -1.5 29.4
18:00 1014 29.94 843 24.89 9.3 48.8 46 -1.6 29.1
18:05 1014 29.94 843 24.89 9.2 48.5 46 -1.8 28.7
18:10 1014 29.94 843 24.89 8.9 47.9 45 -2.3 27.9
18:15 1014 29.94 843 24.89 8.5 47.3 48 -1.9 28.5
18:20 1013 29.91 843 24.89 7.9 46.3 47 -2.5 27.4
18:25 1013 29.91 843 24.89 7.6 45.6 47 -3 26.7
18:30 1013 29.91 843 24.89 7.4 45.2 48 -2.8 26.9
18:35 1013 29.91 843 24.89 7.1 44.7 46 -3.8 25.2
18:40 1013 29.91 843 24.89 7.1 44.9 45 -3.9 25
18:45 1013 29.91 843 24.89 7.5 45.6 41 -4.9 23.2
18:50 1013 29.91 842 24.86 7.7 45.9 42 -4.3 24.2
18:55 1013 29.91 842 24.86 7.3 45.1 41 -4.9 23.1
19:00 1013 29.91 842 24.86 7.1 44.9 41 -5.2 22.7
19:05 1013 29.91 842 24.86 7.1 44.7 39 -5.8 21.5
19:10 1013 29.91 842 24.86 7 44.5 40 -5.7 21.8
19:15 1013 29.91 842 24.86 7.1 44.7 39 -5.9 21.4
19:20 1013 29.91 842 24.86 7.1 44.7 39 -5.8 21.6
19:25 1013 29.91 842 24.86 6.9 44.5 40 -5.9 21.4
19:30 1013 29.91 842 24.86 6.6 43.8 41 -5.8 21.6
19:35 1013 29.91 842 24.86 6.5 43.7 39 -6.5 20.4
19:40 1013 29.91 842 24.86 6.9 44.4 37 -6.8 19.8
19:45 1013 29.91 842 24.86 7.1 44.8 36 -6.9 19.6
19:50 1013 29.91 842 24.86 7.2 45 36 -6.7 19.9
19:55 1013 29.91 842 24.86 7.1 44.8 36 -7 19.4
20:00 1013 29.91 842 24.86 7.2 44.9 35 -7.2 19.1
20:05 1013 29.91 842 24.86 7.2 44.9 36 -7 19.4
20:10 1013 29.91 842 24.86 7 44.7 36 -7.1 19.2
20:15 1013 29.91 842 24.86 7 44.6 35 -7.4 18.7
20:20 1013 29.91 842 24.86 6.9 44.4 39 -6.3 20.7
20:25 1013 29.91 842 24.86 6.6 43.8 35 -7.6 18.3
20:30 1013 29.91 842 24.86 7 44.6 36 -7 19.3
20:35 1013 29.91 842 24.86 6.9 44.4 36 -7.3 18.9
20:40 1013 29.91 842 24.86 6.7 44 36 -7.2 19.1
20:45 1013 29.91 842 24.86 6.6 43.9 37 -7.2 19.1
20:50 1013 29.91 842 24.86 6.6 43.9 37 -7.2 19.1
20:55 1013 29.91 842 24.86 6.7 44.1 36 -7.5 18.6
21:00 1013 29.91 842 24.86 6.6 44 37 -7.1 19.1
21:05 1013 29.91 842 24.86 6.5 43.8 37 -7.2 19.1
21:10 1013 29.91 842 24.86 6.5 43.7 38 -7 19.5
21:15 1013 29.91 842 24.86 6.5 43.7 36 -7.4 18.7
21:20 1013 29.91 842 24.86 6.4 43.6 37 -7.2 19
21:25 1013 29.91 842 24.86 6.3 43.3 37 -7.4 18.6
21:30 1013 29.91 842 24.86 6.3 43.4 36 -7.6 18.3
21:35 1013 29.91 842 24.86 6.5 43.8 35 -7.8 18
21:40 1013 29.91 842 24.86 6.4 43.6 37 -7.1 19.3
21:45 1013 29.91 842 24.86 6.2 43.2 36 -7.9 17.8
21:50 1013 29.91 842 24.86 6.4 43.4 36 -7.6 18.3
21:55 1013 29.91 842 24.86 6.2 43.2 35 -8.2 17.2
22:00 1013 29.91 842 24.86 6.3 43.4 36 -7.8 18
22:05 1013 29.91 842 24.86 6.3 43.4 34 -8.4 16.9
22:10 1013 29.91 842 24.86 6.4 43.6 35 -7.9 17.7
22:15 1013 29.91 842 24.86 6.2 43.2 34 -8.4 17
22:20 1013 29.91 842 24.86 6.5 43.7 34 -8.2 17.2
22:25 1013 29.91 842 24.86 6.5 43.7 35 -7.9 17.8
22:30 1013 29.91 842 24.86 6.5 43.6 34 -8.3 17.1
22:35 1013 29.91 842 24.86 6.6 43.9 33 -8.4 16.9
22:40 1013 29.91 842 24.86 6.7 44 34 -8.2 17.2
22:45 1013 29.91 842 24.86 6.6 43.8 36 -7.6 18.3
22:50 1013 29.91 842 24.86 6 42.8 37 -7.6 18.3
22:55 1013 29.91 842 24.86 6.1 42.9 37 -7.6 18.2
23:00 1013 29.91 842 24.86 5.8 42.4 37 -7.8 18
23:05 1013 29.91 842 24.86 5.7 42.2 37 -7.9 17.7
23:10 1013 29.91 842 24.86 5.9 42.5 36 -7.9 17.7
23:15 1013 29.91 842 24.86 5.8 42.5 34 -8.7 16.3
23:20 1013 29.91 842 24.86 6.3 43.3 34 -8.5 16.6
23:25 1013 29.91 842 24.86 6.2 43.2 35 -8.2 17.3
23:30 1013 29.91 842 24.86 6 42.8 36 -7.9 17.7
23:35 1013 29.91 842 24.86 5.9 42.5 35 -8.4 16.9
23:40 1013 29.91 842 24.86 5.9 42.7 36 -8 17.6
23:45 1013 29.91 842 24.86 6 42.9 35 -8.3 17.1
23:50 1013 29.91 842 24.86 6.4 43.5 35 -7.9 17.8
23:55 1013 29.91 842 24.86 6.1 43.1 36 -8 17.7
24:00 1013 29.91 842 24.86 6 42.9 37 -7.7 18.2